Time;durP1;ratioP1;P1;durP2;ratioP2;P2;SDS_P1;SDS_P2;PMS_P1;PMS_P2;Temp;Humidity;BMP_temperature;BMP_pressure;BME280_temperature;BME280_humidity;BME280_pressure;Samples;Min_cycle;Max_cycle;Signal;HPM_P1;HPM_P2
2022/05/26 00:00:29;;;;;;;;;;;11.10;99.90;;;;;;5076871;28;19911;-73
2022/05/26 00:02:55;;;;;;;;;;;11.10;99.90;;;;;;5076383;28;19904;-73
2022/05/26 00:05:20;;;;;;;;;;;11.10;99.90;;;;;;5076279;28;19987;-73
2022/05/26 00:07:46;;;;;;;;;;;11.10;99.90;;;;;;5076294;28;19999;-73
2022/05/26 00:10:12;;;;;;;;;;;11.00;99.90;;;;;;5058399;28;19908;-73
2022/05/26 00:12:37;;;;;;;;;;;11.00;99.90;;;;;;5058320;28;19905;-73
2022/05/26 00:15:03;;;;;;;;;;;11.00;99.90;;;;;;5076614;28;19919;-73
2022/05/26 00:17:29;;;;;;;;;;;11.00;99.90;;;;;;5076210;28;19904;-73
2022/05/26 00:19:54;;;;;;;;;;;11.00;99.90;;;;;;5076542;28;19904;-73
2022/05/26 00:22:20;;;;;;;;;;;11.00;99.90;;;;;;5076330;28;19995;-73
2022/05/26 00:24:46;;;;;;;;;;;11.00;99.90;;;;;;5076120;28;19987;-73
2022/05/26 00:27:12;;;;;;;;;;;11.10;99.90;;;;;;5075991;28;19920;-73
2022/05/26 00:29:38;;;;;;;;;;;11.00;99.90;;;;;;5075981;28;19904;-73
2022/05/26 00:32:03;;;;;;;;;;;10.80;99.90;;;;;;5075943;28;20260;-72
2022/05/26 00:34:29;;;;;;;;;;;10.60;99.90;;;;;;5075896;28;19912;-72
2022/05/26 00:36:54;;;;;;;;;;;10.40;99.90;;;;;;5076212;28;19962;-73
2022/05/26 00:39:24;;;;;;;;;;;10.30;99.90;;;;;;5076362;28;19911;-72
2022/05/26 00:41:54;;;;;;;;;;;10.30;99.90;;;;;;5075738;28;20348;-72
2022/05/26 00:44:20;;;;;;;;;;;10.20;99.90;;;;;;5075339;28;19911;-73
2022/05/26 00:47:04;;;;;;;;;;;10.30;99.90;;;;;;5075589;28;19908;-73
2022/05/26 00:49:36;;;;;;;;;;;10.30;99.90;;;;;;5057704;28;19954;-74
2022/05/26 00:52:02;;;;;;;;;;;10.40;99.90;;;;;;5075699;28;20331;-76
2022/05/26 00:54:28;;;;;;;;;;;10.40;99.90;;;;;;5057610;28;19905;-76
2022/05/26 00:56:54;;;;;;;;;;;10.40;99.90;;;;;;5075798;28;19912;-76
2022/05/26 00:59:40;;;;;;;;;;;10.40;99.90;;;;;;5075472;28;19905;-76
2022/05/26 01:02:07;;;;;;;;;;;10.40;99.90;;;;;;5075326;28;19911;-76
2022/05/26 01:04:39;;;;;;;;;;;10.30;99.90;;;;;;5075378;28;19908;-76
2022/05/26 01:07:07;;;;;;;;;;;10.20;99.90;;;;;;5075127;28;19917;-73
2022/05/26 01:09:33;;;;;;;;;;;10.10;99.90;;;;;;5075225;28;20372;-73
2022/05/26 01:11:58;;;;;;;;;;;10.00;99.90;;;;;;5075325;28;19912;-74
2022/05/26 01:14:30;;;;;;;;;;;10.10;99.90;;;;;;5075360;28;19904;-73
2022/05/26 01:17:08;;;;;;;;;;;10.10;99.90;;;;;;5075398;28;19905;-73
2022/05/26 01:19:52;;;;;;;;;;;10.10;99.90;;;;;;5074996;28;20023;-73
2022/05/26 01:22:36;;;;;;;;;;;10.10;99.90;;;;;;5075113;28;19909;-73
2022/05/26 01:25:21;;;;;;;;;;;10.20;99.90;;;;;;5075142;28;20279;-73
2022/05/26 01:27:57;;;;;;;;;;;10.20;99.90;;;;;;5075116;28;19915;-74
2022/05/26 01:30:38;;;;;;;;;;;10.20;99.90;;;;;;5075423;28;19904;-74
2022/05/26 01:33:03;;;;;;;;;;;10.20;99.90;;;;;;5074735;28;20279;-73
2022/05/26 01:35:31;;;;;;;;;;;10.20;99.90;;;;;;5074703;28;19904;-73
2022/05/26 01:38:03;;;;;;;;;;;10.10;99.90;;;;;;5074949;28;20297;-73
2022/05/26 01:40:29;;;;;;;;;;;10.10;99.90;;;;;;5074568;28;19904;-73
2022/05/26 01:43:04;;;;;;;;;;;10.00;99.90;;;;;;5074572;28;20007;-73
2022/05/26 01:45:59;;;;;;;;;;;10.00;99.90;;;;;;5074684;28;19904;-73
2022/05/26 01:48:27;;;;;;;;;;;9.90;99.90;;;;;;5052641;28;19911;-73
2022/05/26 01:51:05;;;;;;;;;;;9.90;99.90;;;;;;5074390;28;19905;-73
2022/05/26 01:53:57;;;;;;;;;;;9.80;99.90;;;;;;5074585;28;19905;-74
2022/05/26 01:56:31;;;;;;;;;;;9.90;99.90;;;;;;5035690;28;19904;-75
2022/05/26 01:59:00;;;;;;;;;;;9.80;99.90;;;;;;5056404;28;19954;-73
2022/05/26 02:01:28;;;;;;;;;;;9.80;99.90;;;;;;5074045;28;19998;-73
2022/05/26 02:03:55;;;;;;;;;;;9.80;99.90;;;;;;5074217;28;19905;-73
2022/05/26 02:06:23;;;;;;;;;;;9.80;99.90;;;;;;5073977;28;20279;-73
2022/05/26 02:08:57;;;;;;;;;;;9.70;99.90;;;;;;5074697;28;19916;-73
2022/05/26 02:11:23;;;;;;;;;;;9.50;99.90;;;;;;5074099;28;19905;-74
2022/05/26 02:13:55;;;;;;;;;;;9.50;99.90;;;;;;5073997;28;19911;-76
2022/05/26 02:16:23;;;;;;;;;;;9.50;99.90;;;;;;5074430;28;20348;-76
2022/05/26 02:18:52;;;;;;;;;;;9.50;99.90;;;;;;5074321;28;20366;-76
2022/05/26 02:21:21;;;;;;;;;;;9.60;99.90;;;;;;5074280;28;19969;-76
2022/05/26 02:23:51;;;;;;;;;;;9.60;99.90;;;;;;5073876;28;19911;-76
2022/05/26 02:26:16;;;;;;;;;;;9.60;99.90;;;;;;5073860;28;19923;-76
2022/05/26 02:31:28;;;;;;;;;;;9.70;99.90;;;;;;5073856;28;19950;-77
2022/05/26 02:33:56;;;;;;;;;;;9.60;99.90;;;;;;5056186;28;20000;-76
2022/05/26 02:36:23;;;;;;;;;;;9.70;99.90;;;;;;5073830;28;19908;-75
2022/05/26 02:38:48;;;;;;;;;;;9.60;99.90;;;;;;5074398;28;20256;-76
2022/05/26 02:41:14;;;;;;;;;;;9.60;99.90;;;;;;5074079;28;20420;-76
2022/05/26 02:43:40;;;;;;;;;;;9.60;99.90;;;;;;5073677;28;20003;-76
2022/05/26 02:46:24;;;;;;;;;;;9.50;99.90;;;;;;5073729;28;19908;-76
2022/05/26 02:48:52;;;;;;;;;;;9.50;99.90;;;;;;5074011;28;19999;-76
2022/05/26 02:51:18;;;;;;;;;;;9.50;99.90;;;;;;5073663;28;19911;-76
2022/05/26 02:53:45;;;;;;;;;;;9.50;99.90;;;;;;5073583;28;19908;-76
2022/05/26 02:56:20;;;;;;;;;;;9.50;99.90;;;;;;5073661;28;20002;-76
2022/05/26 02:58:52;;;;;;;;;;;9.50;99.90;;;;;;5073571;28;19904;-76
2022/05/26 03:01:21;;;;;;;;;;;9.40;99.90;;;;;;5073829;28;19958;-76
2022/05/26 03:03:48;;;;;;;;;;;9.50;99.90;;;;;;5055482;28;20382;-76
2022/05/26 03:06:16;;;;;;;;;;;9.40;99.90;;;;;;5073351;28;20396;-76
2022/05/26 03:08:42;;;;;;;;;;;9.40;99.90;;;;;;5077349;28;19908;-76
2022/05/26 03:11:13;;;;;;;;;;;9.40;99.90;;;;;;5077810;28;19905;-76
2022/05/26 03:13:39;;;;;;;;;;;9.50;99.90;;;;;;5077402;28;20360;-76
2022/05/26 03:16:05;;;;;;;;;;;9.40;99.90;;;;;;5077428;28;19904;-75
2022/05/26 03:18:31;;;;;;;;;;;9.40;99.90;;;;;;5077417;28;20357;-75
2022/05/26 03:20:57;;;;;;;;;;;9.30;99.90;;;;;;5077639;28;19908;-75
2022/05/26 03:23:23;;;;;;;;;;;9.30;99.90;;;;;;5077265;28;19947;-75
2022/05/26 03:25:48;;;;;;;;;;;9.20;99.90;;;;;;5077451;28;19959;-75
2022/05/26 03:28:14;;;;;;;;;;;9.20;99.90;;;;;;5077196;28;19911;-75
2022/05/26 03:30:39;;;;;;;;;;;9.20;99.90;;;;;;5077117;28;19904;-76
2022/05/26 03:33:05;;;;;;;;;;;9.20;99.90;;;;;;5077031;28;19904;-76
2022/05/26 03:40:59;;;;;;;;;;;9.30;99.90;;;;;;5077109;28;20439;-76
2022/05/26 03:43:32;;;;;;;;;;;9.30;99.90;;;;;;5076757;28;19944;-75
2022/05/26 03:46:01;;;;;;;;;;;9.30;99.90;;;;;;5077191;28;19916;-75
2022/05/26 03:48:27;;;;;;;;;;;9.30;99.90;;;;;;5077403;28;20408;-76
2022/05/26 03:50:52;;;;;;;;;;;9.30;99.90;;;;;;5076746;28;20352;-75
2022/05/26 03:53:18;;;;;;;;;;;9.20;99.90;;;;;;5076989;28;19912;-75
2022/05/26 03:55:44;;;;;;;;;;;9.20;99.90;;;;;;5076607;28;19912;-75
2022/05/26 03:58:10;;;;;;;;;;;9.20;99.90;;;;;;5076584;28;19905;-75
2022/05/26 04:00:35;;;;;;;;;;;9.20;99.90;;;;;;5076605;28;19987;-75
2022/05/26 04:03:01;;;;;;;;;;;9.20;99.90;;;;;;5076505;28;19908;-74
2022/05/26 04:05:26;;;;;;;;;;;9.30;99.90;;;;;;5076399;28;19905;-76
2022/05/26 04:07:52;;;;;;;;;;;9.40;99.90;;;;;;5076383;28;19920;-75
2022/05/26 04:10:19;;;;;;;;;;;9.40;99.90;;;;;;5076394;28;19904;-75
2022/05/26 04:12:46;;;;;;;;;;;9.50;99.90;;;;;;5076439;28;19954;-75
2022/05/26 04:15:12;;;;;;;;;;;9.50;99.90;;;;;;5076639;28;19911;-76
2022/05/26 04:17:38;;;;;;;;;;;9.60;99.90;;;;;;5076248;28;20311;-74
2022/05/26 04:20:05;;;;;;;;;;;9.60;99.90;;;;;;5076530;28;19962;-75
2022/05/26 04:22:30;;;;;;;;;;;9.70;99.90;;;;;;5076632;28;20340;-75
2022/05/26 04:24:57;;;;;;;;;;;9.80;99.90;;;;;;5076169;28;19908;-75
2022/05/26 04:27:23;;;;;;;;;;;9.80;99.90;;;;;;5076581;28;19919;-75
2022/05/26 04:29:49;;;;;;;;;;;9.80;99.90;;;;;;5076067;28;20276;-75
2022/05/26 04:32:15;;;;;;;;;;;9.90;99.90;;;;;;5076220;28;19904;-75
2022/05/26 04:34:40;;;;;;;;;;;9.90;99.90;;;;;;5076006;28;19905;-74
2022/05/26 04:37:06;;;;;;;;;;;10.00;99.90;;;;;;5076220;28;19910;-75
2022/05/26 04:39:32;;;;;;;;;;;10.00;99.90;;;;;;5075909;28;19908;-74
2022/05/26 04:41:59;;;;;;;;;;;10.10;99.90;;;;;;5076381;28;19911;-74
2022/05/26 04:44:24;;;;;;;;;;;10.10;99.90;;;;;;5076981;28;20255;-74
2022/05/26 04:46:50;;;;;;;;;;;10.20;99.90;;;;;;5075939;28;19908;-74
2022/05/26 04:49:16;;;;;;;;;;;10.20;99.90;;;;;;5076029;28;19904;-74
2022/05/26 04:51:42;;;;;;;;;;;10.30;99.90;;;;;;5075577;28;19915;-74
2022/05/26 04:54:08;;;;;;;;;;;10.30;99.90;;;;;;5076118;28;20287;-74
2022/05/26 04:56:34;;;;;;;;;;;10.30;99.90;;;;;;5073972;28;20002;-73
2022/05/26 04:58:59;;;;;;;;;;;10.30;99.90;;;;;;5056948;28;19953;-74
2022/05/26 05:01:25;;;;;;;;;;;10.30;99.90;;;;;;5073897;28;19908;-74
2022/05/26 05:03:51;;;;;;;;;;;10.30;99.90;;;;;;5074872;28;19910;-74
2022/05/26 05:06:17;;;;;;;;;;;10.30;99.90;;;;;;5056641;28;19912;-74
2022/05/26 05:08:42;;;;;;;;;;;10.30;99.90;;;;;;5074783;28;19913;-74
2022/05/26 05:11:09;;;;;;;;;;;10.30;99.90;;;;;;5074735;28;20299;-74
2022/05/26 05:13:34;;;;;;;;;;;10.30;99.90;;;;;;5074698;28;19904;-74
2022/05/26 05:16:02;;;;;;;;;;;10.20;99.90;;;;;;5074376;28;19910;-74
2022/05/26 05:18:28;;;;;;;;;;;10.20;99.90;;;;;;5074622;28;19904;-74
2022/05/26 05:20:55;;;;;;;;;;;10.20;99.90;;;;;;5074465;28;19954;-74
2022/05/26 05:23:21;;;;;;;;;;;10.30;99.90;;;;;;5074367;28;20430;-74
2022/05/26 05:25:48;;;;;;;;;;;10.30;99.90;;;;;;5056624;28;19909;-74
2022/05/26 05:28:40;;;;;;;;;;;10.40;99.90;;;;;;5074296;28;19947;-74
2022/05/26 05:31:26;;;;;;;;;;;10.40;99.90;;;;;;5049440;28;19905;-74
2022/05/26 05:33:54;;;;;;;;;;;10.60;99.90;;;;;;5067222;28;20077;-74
2022/05/26 05:36:21;;;;;;;;;;;10.60;99.90;;;;;;5074424;28;20272;-74
2022/05/26 05:38:47;;;;;;;;;;;10.70;99.90;;;;;;5074176;28;20352;-74
2022/05/26 05:41:12;;;;;;;;;;;10.70;99.90;;;;;;5074245;28;19991;-74
2022/05/26 05:43:39;;;;;;;;;;;10.70;99.90;;;;;;5073951;28;19904;-72
2022/05/26 05:46:06;;;;;;;;;;;10.70;99.90;;;;;;5073651;28;19909;-72
2022/05/26 05:48:32;;;;;;;;;;;10.80;99.90;;;;;;5073875;28;19905;-72
2022/05/26 05:50:58;;;;;;;;;;;10.80;99.90;;;;;;5073820;28;19910;-72
2022/05/26 05:53:23;;;;;;;;;;;10.90;99.90;;;;;;5055851;28;20275;-72
2022/05/26 05:55:49;;;;;;;;;;;11.00;99.90;;;;;;5072907;28;19904;-72
2022/05/26 05:58:14;;;;;;;;;;;11.00;99.90;;;;;;5073880;28;19911;-72
2022/05/26 06:00:41;;;;;;;;;;;11.10;99.90;;;;;;5073766;28;19904;-72
2022/05/26 06:03:07;;;;;;;;;;;11.10;99.90;;;;;;5073637;28;19905;-72
2022/05/26 06:05:33;;;;;;;;;;;11.20;99.90;;;;;;5073609;28;19958;-71
2022/05/26 06:07:59;;;;;;;;;;;11.30;99.90;;;;;;5072462;28;19995;-72
2022/05/26 06:10:24;;;;;;;;;;;11.40;99.90;;;;;;5074113;28;19904;-71
2022/05/26 06:12:50;;;;;;;;;;;11.50;99.90;;;;;;5072951;28;19912;-71
2022/05/26 06:15:16;;;;;;;;;;;11.50;99.90;;;;;;5073709;28;20383;-72
2022/05/26 06:17:42;;;;;;;;;;;11.60;99.90;;;;;;5074312;28;20312;-71
2022/05/26 06:20:10;;;;;;;;;;;11.50;99.90;;;;;;5074541;28;19912;-71
2022/05/26 06:22:39;;;;;;;;;;;11.50;99.90;;;;;;5074112;28;19905;-71
2022/05/26 06:25:05;;;;;;;;;;;11.60;99.90;;;;;;5073884;28;19905;-72
2022/05/26 06:30:17;;;;;;;;;;;11.70;99.90;;;;;;5074495;28;19911;-73
2022/05/26 06:38:11;;;;;;;;;;;11.90;99.90;;;;;;5054335;28;19951;-72
2022/05/26 06:40:37;;;;;;;;;;;12.00;99.90;;;;;;5072164;28;19955;-72
2022/05/26 06:43:04;;;;;;;;;;;12.00;99.90;;;;;;5071782;28;19927;-72
2022/05/26 06:45:30;;;;;;;;;;;12.20;99.90;;;;;;5071554;28;20306;-71
2022/05/26 06:47:56;;;;;;;;;;;12.30;99.90;;;;;;5071619;28;19904;-72
2022/05/26 06:50:22;;;;;;;;;;;12.40;99.90;;;;;;5071605;28;20368;-71
2022/05/26 06:52:47;;;;;;;;;;;12.50;99.90;;;;;;5071715;28;19993;-71
2022/05/26 06:55:13;;;;;;;;;;;12.70;99.90;;;;;;5072291;28;20314;-72
2022/05/26 06:57:39;;;;;;;;;;;12.80;99.90;;;;;;5073230;28;20323;-72
2022/05/26 07:00:06;;;;;;;;;;;12.90;99.90;;;;;;5074162;28;20264;-72
2022/05/26 07:02:32;;;;;;;;;;;13.00;99.90;;;;;;5055610;28;20379;-72
2022/05/26 07:04:58;;;;;;;;;;;13.20;99.90;;;;;;5073477;28;19940;-72
2022/05/26 07:07:25;;;;;;;;;;;13.30;99.90;;;;;;5073357;28;19951;-73
2022/05/26 07:09:52;;;;;;;;;;;13.50;99.90;;;;;;5073780;28;19912;-72
2022/05/26 07:12:18;;;;;;;;;;;13.70;99.90;;;;;;5073698;28;19904;-73
2022/05/26 07:14:43;;;;;;;;;;;13.90;99.90;;;;;;5073418;28;19954;-72
2022/05/26 07:17:09;;;;;;;;;;;14.00;99.90;;;;;;5073413;28;19995;-72
2022/05/26 07:19:36;;;;;;;;;;;14.10;99.90;;;;;;5075815;28;20556;-73
2022/05/26 07:22:01;;;;;;;;;;;14.30;99.90;;;;;;5073464;28;19909;-73
2022/05/26 07:24:27;;;;;;;;;;;14.50;99.90;;;;;;5073357;28;19911;-73
2022/05/26 07:26:52;;;;;;;;;;;14.60;99.90;;;;;;5079461;28;19907;-72
2022/05/26 07:29:18;;;;;;;;;;;14.80;99.90;;;;;;5060669;28;19908;-72
2022/05/26 07:31:44;;;;;;;;;;;15.00;99.90;;;;;;5072970;28;19913;-72
2022/05/26 07:34:09;;;;;;;;;;;15.20;99.90;;;;;;5073330;28;19915;-72
2022/05/26 07:42:09;;;;;;;;;;;15.70;99.90;;;;;;5074408;28;19930;-74
2022/05/26 07:44:36;;;;;;;;;;;15.90;99.90;;;;;;5073195;28;19909;-74
2022/05/26 07:47:03;;;;;;;;;;;15.90;99.90;;;;;;5073072;28;19919;-73
2022/05/26 07:49:29;;;;;;;;;;;16.00;99.90;;;;;;5073148;28;19911;-74
2022/05/26 07:51:56;;;;;;;;;;;16.00;99.90;;;;;;5073568;28;19904;-74
2022/05/26 07:54:22;;;;;;;;;;;16.10;99.90;;;;;;5052000;28;19908;-73
2022/05/26 07:56:47;;;;;;;;;;;16.10;99.90;;;;;;5077008;28;19962;-74
2022/05/26 07:59:13;;;;;;;;;;;16.10;99.90;;;;;;5076909;28;19905;-73
2022/05/26 08:01:39;;;;;;;;;;;16.20;99.90;;;;;;5058932;28;19905;-74
2022/05/26 08:04:07;;;;;;;;;;;16.40;99.90;;;;;;5062525;28;19913;-74
2022/05/26 08:06:33;;;;;;;;;;;16.50;99.90;;;;;;5059553;28;19918;-74
2022/05/26 08:08:58;;;;;;;;;;;16.60;99.90;;;;;;5058468;28;19990;-74
2022/05/26 08:11:24;;;;;;;;;;;16.70;99.90;;;;;;5078193;28;19908;-73
2022/05/26 08:13:49;;;;;;;;;;;16.80;99.90;;;;;;5096652;28;19953;-73
2022/05/26 08:16:15;;;;;;;;;;;16.80;99.90;;;;;;5096676;28;20261;-73
2022/05/26 08:18:41;;;;;;;;;;;16.90;99.90;;;;;;5096415;28;19911;-73
2022/05/26 08:21:16;;;;;;;;;;;17.00;99.90;;;;;;5097155;28;19904;-73
2022/05/26 08:23:41;;;;;;;;;;;17.20;99.90;;;;;;5078348;28;19904;-73
2022/05/26 08:26:07;;;;;;;;;;;17.40;99.90;;;;;;5096624;28;19914;-73
2022/05/26 08:28:32;;;;;;;;;;;17.50;99.90;;;;;;5096376;28;19907;-73
2022/05/26 08:30:59;;;;;;;;;;;17.60;99.90;;;;;;5078194;28;20279;-73
2022/05/26 08:33:28;;;;;;;;;;;17.50;99.90;;;;;;5096228;28;19911;-73
2022/05/26 08:36:00;;;;;;;;;;;17.50;99.90;;;;;;5096499;28;19911;-73
2022/05/26 08:38:26;;;;;;;;;;;17.70;99.90;;;;;;5096194;28;20282;-73
2022/05/26 08:40:52;;;;;;;;;;;17.80;99.90;;;;;;5096498;28;19908;-73
2022/05/26 08:43:23;;;;;;;;;;;17.90;99.90;;;;;;5096001;28;19942;-73
2022/05/26 08:45:49;;;;;;;;;;;18.00;99.90;;;;;;5096862;28;20288;-73
2022/05/26 08:48:17;;;;;;;;;;;18.10;99.90;;;;;;5096229;28;19904;-74
2022/05/26 08:50:43;;;;;;;;;;;18.20;99.90;;;;;;5077811;28;19935;-73
2022/05/26 08:53:20;;;;;;;;;;;18.30;99.90;;;;;;5096127;28;19926;-73
2022/05/26 08:55:47;;;;;;;;;;;18.50;99.90;;;;;;5095889;28;20317;-73
2022/05/26 08:58:25;;;;;;;;;;;18.60;99.90;;;;;;5095827;28;19908;-72
2022/05/26 09:00:51;;;;;;;;;;;18.70;99.90;;;;;;5096104;28;19926;-69
2022/05/26 09:03:33;;;;;;;;;;;18.80;99.90;;;;;;5095958;28;19904;-70
2022/05/26 09:05:59;;;;;;;;;;;18.80;99.90;;;;;;5094454;28;19914;-70
2022/05/26 09:13:56;;;;;;;;;;;18.70;99.20;;;;;;5096091;28;20330;-69
2022/05/26 09:16:22;;;;;;;;;;;18.60;98.40;;;;;;5095397;28;19908;-69
2022/05/26 09:19:06;;;;;;;;;;;18.50;99.30;;;;;;5077263;28;19974;-70
2022/05/26 09:21:32;;;;;;;;;;;18.70;99.70;;;;;;5077069;28;19911;-70
2022/05/26 09:24:39;;;;;;;;;;;18.70;97.90;;;;;;5095290;28;19954;-70
2022/05/26 09:27:28;;;;;;;;;;;18.80;96.50;;;;;;4993913;28;19910;-70
2022/05/26 09:29:54;;;;;;;;;;;18.90;95.10;;;;;;4985902;28;19942;-70
2022/05/26 09:32:28;;;;;;;;;;;18.90;95.20;;;;;;5041224;28;19908;-70
2022/05/26 09:35:03;;;;;;;;;;;19.00;95.00;;;;;;5095376;28;19908;-70
2022/05/26 09:37:39;;;;;;;;;;;19.10;94.20;;;;;;5095288;28;19940;-70
2022/05/26 09:40:19;;;;;;;;;;;19.10;94.20;;;;;;5077126;28;19904;-70
2022/05/26 09:42:46;;;;;;;;;;;19.20;94.00;;;;;;5076668;28;19904;-69
2022/05/26 09:45:14;;;;;;;;;;;19.30;93.50;;;;;;5094905;28;20026;-70
2022/05/26 09:47:53;;;;;;;;;;;19.40;91.10;;;;;;5095128;28;19908;-69
2022/05/26 09:50:31;;;;;;;;;;;19.40;92.10;;;;;;5094814;28;19911;-70
2022/05/26 09:52:57;;;;;;;;;;;19.60;93.40;;;;;;5095293;28;19904;-72
2022/05/26 09:55:30;;;;;;;;;;;19.80;93.50;;;;;;5094698;28;20002;-72
2022/05/26 09:58:04;;;;;;;;;;;20.00;88.90;;;;;;5094631;28;19998;-72
2022/05/26 10:00:32;;;;;;;;;;;20.20;91.20;;;;;;5094597;28;19908;-72
2022/05/26 10:03:00;;;;;;;;;;;20.30;87.70;;;;;;5094786;28;20401;-72
2022/05/26 10:05:32;;;;;;;;;;;20.40;87.70;;;;;;5094780;28;19916;-72
2022/05/26 10:08:20;;;;;;;;;;;20.60;87.40;;;;;;5094458;28;19928;-71
2022/05/26 10:10:52;;;;;;;;;;;20.60;88.80;;;;;;5080795;28;20333;-71
2022/05/26 10:13:27;;;;;;;;;;;20.60;84.40;;;;;;5076193;28;19914;-72
2022/05/26 10:15:56;;;;;;;;;;;20.60;88.50;;;;;;5094391;28;19919;-72
2022/05/26 10:18:24;;;;;;;;;;;20.80;88.70;;;;;;5094325;28;20282;-71
2022/05/26 10:20:55;;;;;;;;;;;20.80;87.80;;;;;;5094288;28;19908;-72
2022/05/26 10:23:39;;;;;;;;;;;20.90;87.40;;;;;;5094232;28;19908;-71
2022/05/26 10:26:11;;;;;;;;;;;21.00;86.80;;;;;;5075929;28;19912;-72
2022/05/26 10:28:56;;;;;;;;;;;20.90;83.80;;;;;;5094428;28;19916;-72
2022/05/26 10:31:28;;;;;;;;;;;21.00;83.70;;;;;;5094388;28;20363;-72
2022/05/26 10:34:02;;;;;;;;;;;21.10;85.40;;;;;;5094565;28;19914;-71
2022/05/26 10:36:46;;;;;;;;;;;21.10;84.50;;;;;;5094093;28;19912;-71
2022/05/26 10:39:30;;;;;;;;;;;21.20;85.70;;;;;;5093984;28;19934;-71
2022/05/26 10:42:02;;;;;;;;;;;21.30;82.70;;;;;;5093917;28;19915;-72
2022/05/26 10:44:32;;;;;;;;;;;21.30;78.70;;;;;;5094300;28;19999;-71
2022/05/26 10:47:04;;;;;;;;;;;21.30;81.60;;;;;;5094126;28;19916;-71
2022/05/26 10:49:49;;;;;;;;;;;21.50;78.20;;;;;;5094211;28;19916;-71
2022/05/26 10:52:36;;;;;;;;;;;21.60;79.70;;;;;;5094066;28;19908;-71
2022/05/26 10:55:15;;;;;;;;;;;21.70;77.10;;;;;;5075754;28;19908;-71
2022/05/26 10:57:47;;;;;;;;;;;22.00;78.00;;;;;;5093807;28;19908;-71
2022/05/26 11:00:20;;;;;;;;;;;22.10;72.00;;;;;;5094318;28;19919;-71
2022/05/26 11:02:49;;;;;;;;;;;21.90;76.90;;;;;;5093845;28;19908;-70
2022/05/26 11:05:30;;;;;;;;;;;21.80;73.20;;;;;;5075708;28;20360;-70
2022/05/26 11:08:04;;;;;;;;;;;21.80;72.50;;;;;;5093564;28;19917;-70
2022/05/26 11:10:56;;;;;;;;;;;21.70;71.70;;;;;;5094015;28;20012;-70
2022/05/26 11:13:40;;;;;;;;;;;21.50;73.80;;;;;;5088735;28;19997;-70
2022/05/26 11:19:23;;;;;;;;;;;21.40;75.70;;;;;;5093697;28;19916;-70
2022/05/26 11:21:50;;;;;;;;;;;21.50;75.50;;;;;;5004273;28;19920;-70
2022/05/26 11:24:15;;;;;;;;;;;21.60;73.50;;;;;;5093832;28;19904;-69
2022/05/26 11:26:50;;;;;;;;;;;21.70;73.70;;;;;;5093445;28;19965;-70
2022/05/26 11:29:31;;;;;;;;;;;21.80;74.60;;;;;;5096272;28;19908;-70
2022/05/26 11:38:21;;;;;;;;;;;21.60;74.00;;;;;;5097389;28;20315;-70
2022/05/26 11:41:03;;;;;;;;;;;21.30;73.90;;;;;;5097529;28;19962;-70
2022/05/26 11:43:38;;;;;;;;;;;21.20;74.80;;;;;;5097160;28;19912;-70
2022/05/26 11:46:03;;;;;;;;;;;21.10;76.20;;;;;;5078884;28;19912;-70
2022/05/26 11:48:29;;;;;;;;;;;21.10;74.80;;;;;;5097120;28;19949;-70
2022/05/26 11:50:56;;;;;;;;;;;21.20;75.80;;;;;;5097679;28;19982;-70
2022/05/26 11:53:28;;;;;;;;;;;21.30;78.30;;;;;;5097016;28;19908;-70
2022/05/26 11:55:55;;;;;;;;;;;21.50;76.80;;;;;;5089191;28;19966;-71
2022/05/26 11:58:44;;;;;;;;;;;21.50;76.30;;;;;;5070964;28;19920;-70
2022/05/26 12:01:10;;;;;;;;;;;21.50;75.60;;;;;;5060985;28;19912;-71
2022/05/26 12:03:48;;;;;;;;;;;21.40;78.30;;;;;;5063453;28;19912;-72
2022/05/26 12:06:14;;;;;;;;;;;21.30;76.60;;;;;;5055550;28;19917;-71
2022/05/26 12:08:52;;;;;;;;;;;21.30;76.30;;;;;;5063457;28;19986;-70
2022/05/26 12:11:19;;;;;;;;;;;21.20;76.10;;;;;;5059135;28;19909;-69
2022/05/26 12:13:56;;;;;;;;;;;21.10;79.70;;;;;;5069792;28;19920;-71
2022/05/26 12:16:24;;;;;;;;;;;21.10;78.30;;;;;;5094195;28;20367;-71
2022/05/26 12:19:08;;;;;;;;;;;21.00;78.20;;;;;;5072025;28;20292;-71
2022/05/26 12:21:46;;;;;;;;;;;21.10;78.40;;;;;;5076403;28;19908;-71
2022/05/26 12:24:29;;;;;;;;;;;21.10;79.50;;;;;;5076560;28;19972;-71
2022/05/26 12:26:55;;;;;;;;;;;21.10;77.90;;;;;;5076069;28;20343;-71
2022/05/26 12:29:39;;;;;;;;;;;21.00;77.40;;;;;;5076741;28;19947;-71
2022/05/26 12:32:09;;;;;;;;;;;20.80;80.90;;;;;;5076182;28;19956;-71
2022/05/26 12:34:40;;;;;;;;;;;20.60;79.30;;;;;;5076081;28;19915;-71
2022/05/26 12:37:14;;;;;;;;;;;20.40;79.10;;;;;;5074764;28;19909;-71
2022/05/26 12:39:53;;;;;;;;;;;20.30;80.50;;;;;;5076391;28;20312;-72
2022/05/26 12:42:40;;;;;;;;;;;20.30;81.20;;;;;;5076424;28;19995;-72
2022/05/26 12:45:09;;;;;;;;;;;20.20;82.10;;;;;;5075893;28;19944;-71
2022/05/26 12:47:38;;;;;;;;;;;20.20;83.80;;;;;;5075777;28;19960;-73
2022/05/26 12:50:24;;;;;;;;;;;20.20;83.00;;;;;;5076372;28;20002;-72
2022/05/26 12:52:49;;;;;;;;;;;20.30;82.40;;;;;;5075708;28;19915;-71
2022/05/26 12:55:19;;;;;;;;;;;20.30;82.30;;;;;;5076291;28;20003;-72
2022/05/26 12:57:51;;;;;;;;;;;20.30;82.50;;;;;;5075813;28;20348;-72
2022/05/26 13:00:21;;;;;;;;;;;20.30;83.10;;;;;;5075519;28;20008;-71
2022/05/26 13:02:59;;;;;;;;;;;20.30;82.20;;;;;;5075679;28;19908;-73
2022/05/26 13:05:29;;;;;;;;;;;20.30;81.30;;;;;;5075596;28;19909;-72
2022/05/26 13:07:55;;;;;;;;;;;20.40;84.30;;;;;;5075152;28;19968;-72
2022/05/26 13:10:26;;;;;;;;;;;20.50;82.30;;;;;;5075353;28;20003;-72
2022/05/26 13:12:52;;;;;;;;;;;20.60;82.60;;;;;;5075182;28;19916;-72
2022/05/26 13:15:22;;;;;;;;;;;20.60;82.30;;;;;;5073956;28;19952;-72
2022/05/26 13:17:50;;;;;;;;;;;20.60;80.20;;;;;;5075117;28;20291;-72
2022/05/26 13:20:21;;;;;;;;;;;20.60;81.20;;;;;;5075054;28;19947;-73
2022/05/26 13:22:47;;;;;;;;;;;20.50;79.40;;;;;;5073994;28;19915;-71
2022/05/26 13:25:15;;;;;;;;;;;20.20;81.30;;;;;;5074951;28;19912;-72
2022/05/26 13:27:48;;;;;;;;;;;20.10;81.60;;;;;;5074839;28;19952;-72
2022/05/26 13:33:09;;;;;;;;;;;19.90;82.30;;;;;;5074895;28;19962;-72
2022/05/26 13:35:39;;;;;;;;;;;19.80;82.80;;;;;;5074847;28;19940;-71
2022/05/26 13:38:17;;;;;;;;;;;19.70;82.10;;;;;;5074834;28;19909;-72
2022/05/26 13:40:43;;;;;;;;;;;19.60;83.90;;;;;;5054021;28;19917;-72
2022/05/26 13:43:10;;;;;;;;;;;19.60;83.90;;;;;;5054517;28;19915;-74
2022/05/26 13:45:36;;;;;;;;;;;19.60;83.10;;;;;;5054610;28;19909;-71
2022/05/26 13:48:20;;;;;;;;;;;19.60;84.70;;;;;;5054692;28;19913;-72
2022/05/26 13:50:50;;;;;;;;;;;19.70;83.50;;;;;;5058675;28;19913;-70
2022/05/26 13:53:15;;;;;;;;;;;19.60;84.00;;;;;;5056793;28;19917;-71
2022/05/26 13:55:44;;;;;;;;;;;19.70;83.50;;;;;;5074287;28;20387;-71
2022/05/26 13:58:10;;;;;;;;;;;19.70;83.90;;;;;;5073920;28;19913;-72
2022/05/26 14:00:36;;;;;;;;;;;19.70;84.40;;;;;;5074210;28;20350;-72
2022/05/26 14:03:06;;;;;;;;;;;19.70;84.50;;;;;;5073971;28;19908;-71
2022/05/26 14:05:33;;;;;;;;;;;19.80;84.60;;;;;;5056407;28;19916;-71
2022/05/26 14:07:58;;;;;;;;;;;19.80;83.00;;;;;;5074051;28;20288;-71
2022/05/26 14:10:36;;;;;;;;;;;19.70;84.70;;;;;;5074817;28;19908;-73
2022/05/26 14:13:01;;;;;;;;;;;19.70;85.00;;;;;;5074102;28;20019;-72
2022/05/26 14:15:56;;;;;;;;;;;19.70;84.20;;;;;;5074111;28;20439;-73
2022/05/26 14:18:31;;;;;;;;;;;19.70;85.90;;;;;;5034793;28;20319;-73
2022/05/26 14:21:04;;;;;;;;;;;19.90;84.20;;;;;;5073963;28;19913;-71
2022/05/26 14:23:31;;;;;;;;;;;20.00;84.30;;;;;;5074488;28;20305;-72
2022/05/26 14:26:04;;;;;;;;;;;20.00;81.80;;;;;;5073942;28;19908;-72
2022/05/26 14:28:33;;;;;;;;;;;20.10;82.60;;;;;;5073987;28;19948;-71
2022/05/26 14:30:58;;;;;;;;;;;20.00;83.50;;;;;;5074022;28;19914;-73
2022/05/26 14:33:26;;;;;;;;;;;19.90;83.70;;;;;;5055932;28;19983;-72
2022/05/26 14:35:52;;;;;;;;;;;20.00;83.50;;;;;;5074102;28;19912;-72
2022/05/26 14:38:17;;;;;;;;;;;20.00;82.70;;;;;;5074151;28;19939;-73
2022/05/26 14:40:44;;;;;;;;;;;20.00;83.50;;;;;;5074191;28;19955;-73
2022/05/26 14:43:10;;;;;;;;;;;20.00;83.00;;;;;;5074102;28;19940;-73
2022/05/26 14:45:35;;;;;;;;;;;19.90;82.50;;;;;;5073755;28;19909;-73
2022/05/26 14:48:04;;;;;;;;;;;19.90;83.60;;;;;;5073958;28;19919;-72
2022/05/26 14:50:33;;;;;;;;;;;20.00;84.70;;;;;;5073980;28;19915;-72
2022/05/26 14:53:00;;;;;;;;;;;20.10;83.80;;;;;;5073852;28;19908;-73
2022/05/26 14:55:27;;;;;;;;;;;20.10;83.10;;;;;;5073737;28;19977;-72
2022/05/26 14:57:53;;;;;;;;;;;20.20;83.40;;;;;;5073651;28;19912;-72
2022/05/26 15:00:20;;;;;;;;;;;20.20;83.30;;;;;;5055835;28;19909;-72
2022/05/26 15:02:46;;;;;;;;;;;20.20;83.20;;;;;;5073896;28;20265;-72
2022/05/26 15:05:11;;;;;;;;;;;20.20;82.80;;;;;;5059821;28;19909;-72
2022/05/26 15:07:38;;;;;;;;;;;20.20;83.50;;;;;;5077668;28;20372;-72
2022/05/26 15:10:04;;;;;;;;;;;20.10;83.80;;;;;;5077681;28;19939;-72
2022/05/26 15:12:30;;;;;;;;;;;20.20;84.20;;;;;;5059485;28;20360;-73